createdAt,value
2018-07-07T00:00:20.445Z,14.30
2018-07-07T00:02:48.512Z,14.30
2018-07-07T00:05:16.643Z,14.40
2018-07-07T00:07:44.678Z,14.40
2018-07-07T00:10:13.713Z,14.40
2018-07-07T00:12:42.180Z,14.30
2018-07-07T00:15:12.628Z,14.30
2018-07-07T00:17:41.367Z,14.30
2018-07-07T00:20:09.406Z,14.30
2018-07-07T00:25:05.405Z,14.30
2018-07-07T00:32:29.415Z,14.10
2018-07-07T00:34:57.490Z,14.10
2018-07-07T00:37:25.562Z,14.20
2018-07-07T00:39:53.607Z,14.20
2018-07-07T00:42:21.699Z,14.10
2018-07-07T00:44:49.766Z,14.20
2018-07-07T00:47:17.813Z,14.10
2018-07-07T00:49:45.856Z,14.10
2018-07-07T00:52:13.908Z,14.10
2018-07-07T00:54:41.982Z,14.10
2018-07-07T00:57:10.062Z,14.20
2018-07-07T00:59:38.106Z,14.20
2018-07-07T01:02:10.613Z,14.20
2018-07-07T01:04:38.686Z,14.20
2018-07-07T01:09:35.482Z,14.30
2018-07-07T01:12:03.709Z,14.30
2018-07-07T01:14:31.780Z,14.30
2018-07-07T01:16:59.818Z,14.30
2018-07-07T01:19:27.854Z,14.30
2018-07-07T01:21:56.162Z,14.30
2018-07-07T01:24:24.208Z,14.30
2018-07-07T01:26:52.867Z,14.10
2018-07-07T01:31:48.765Z,14.20
2018-07-07T01:34:17.050Z,14.20
2018-07-07T01:39:13.685Z,14.20
2018-07-07T01:46:37.698Z,14.20
2018-07-07T01:49:05.993Z,14.20
2018-07-07T01:51:34.051Z,14.30
2018-07-07T01:54:02.174Z,14.10
2018-07-07T01:56:30.244Z,14.20
2018-07-07T01:58:58.284Z,14.20
2018-07-07T02:01:26.338Z,14.20
2018-07-07T02:03:54.417Z,14.30
2018-07-07T02:06:22.472Z,14.30
2018-07-07T02:08:50.550Z,14.20
2018-07-07T02:11:18.592Z,14.20
2018-07-07T02:16:14.744Z,14.20
2018-07-07T02:21:10.870Z,14.20
2018-07-07T02:23:38.920Z,14.20
2018-07-07T02:26:07.196Z,14.20
2018-07-07T02:28:35.446Z,14.20
2018-07-07T02:31:03.512Z,14.20
2018-07-07T02:33:31.568Z,14.30
2018-07-07T02:35:59.606Z,14.20
2018-07-07T02:40:55.738Z,14.10
2018-07-07T02:43:23.852Z,14.10
2018-07-07T02:45:51.881Z,14.20
2018-07-07T02:48:19.954Z,14.20
2018-07-07T02:53:16.078Z,14.10
2018-07-07T02:58:11.970Z,14.20
2018-07-07T03:03:08.338Z,14.10
2018-07-07T03:08:04.478Z,14.20
2018-07-07T03:10:32.523Z,14.10
2018-07-07T03:13:00.558Z,14.10
2018-07-07T03:17:56.465Z,14.10
2018-07-07T03:20:24.514Z,14.00
2018-07-07T03:25:20.738Z,14.10
2018-07-07T03:27:48.814Z,14.10
2018-07-07T03:30:16.849Z,14.00
2018-07-07T03:32:44.929Z,14.10
2018-07-07T03:35:12.998Z,14.10
2018-07-07T03:37:41.048Z,14.10
2018-07-07T03:40:09.129Z,14.10
2018-07-07T03:45:05.074Z,14.10
2018-07-07T03:47:33.113Z,14.00
2018-07-07T03:50:01.179Z,14.00
2018-07-07T03:52:29.226Z,14.00
2018-07-07T03:59:53.382Z,14.10
2018-07-07T04:02:21.421Z,14.10
2018-07-07T04:04:49.465Z,14.10
2018-07-07T04:07:17.573Z,14.10
2018-07-07T04:09:45.766Z,14.20
2018-07-07T04:12:13.797Z,14.20
2018-07-07T04:14:41.846Z,14.20
2018-07-07T04:17:09.879Z,14.30
2018-07-07T04:19:37.926Z,14.30
2018-07-07T04:22:05.985Z,14.50
2018-07-07T04:24:34.050Z,14.40
2018-07-07T04:27:02.098Z,14.40
2018-07-07T04:29:30.133Z,14.50
2018-07-07T04:31:58.396Z,14.40
2018-07-07T04:34:26.479Z,14.40
2018-07-07T04:36:55.193Z,14.40
2018-07-07T04:39:23.251Z,14.40
2018-07-07T04:41:51.310Z,14.60
2018-07-07T04:44:19.368Z,14.70
2018-07-07T04:46:47.393Z,14.70
2018-07-07T04:49:15.478Z,14.60
2018-07-07T04:51:43.524Z,14.60
2018-07-07T04:54:11.602Z,14.70
2018-07-07T04:56:39.675Z,14.70
2018-07-07T04:59:07.854Z,14.70
2018-07-07T05:01:35.974Z,14.80
2018-07-07T05:04:04.054Z,14.80
2018-07-07T05:06:32.094Z,14.90
2018-07-07T05:09:00.148Z,14.90
2018-07-07T05:11:28.189Z,14.90
2018-07-07T05:13:56.294Z,15.00
2018-07-07T05:16:24.393Z,15.10
2018-07-07T05:18:52.430Z,15.10
2018-07-07T05:21:20.465Z,15.20
2018-07-07T05:23:48.537Z,15.20
2018-07-07T05:26:16.585Z,15.10
2018-07-07T05:28:44.641Z,15.10
2018-07-07T05:31:12.713Z,15.10
2018-07-07T05:33:40.753Z,15.10
2018-07-07T05:36:08.805Z,15.20
2018-07-07T05:38:36.849Z,15.30
2018-07-07T05:41:04.934Z,15.30
2018-07-07T05:43:32.969Z,15.40
2018-07-07T05:46:01.036Z,15.30
2018-07-07T05:48:29.098Z,15.30
2018-07-07T05:50:57.183Z,15.50
2018-07-07T05:53:25.235Z,15.50
2018-07-07T05:55:53.288Z,15.50
2018-07-07T05:58:21.339Z,15.50
2018-07-07T06:00:49.417Z,15.50
2018-07-07T06:03:17.492Z,15.50
2018-07-07T06:05:45.549Z,15.50
2018-07-07T06:08:13.605Z,15.70
2018-07-07T06:10:41.653Z,15.70
2018-07-07T06:13:09.957Z,15.90
2018-07-07T06:15:38.022Z,15.80
2018-07-07T06:18:06.372Z,15.70
2018-07-07T06:20:34.484Z,15.70
2018-07-07T06:23:02.519Z,15.80
2018-07-07T06:25:30.683Z,15.90
2018-07-07T06:27:59.197Z,15.90
2018-07-07T06:30:27.388Z,16.00
2018-07-07T06:32:55.430Z,16.00
2018-07-07T06:35:23.514Z,15.90
2018-07-07T06:37:51.574Z,16.00
2018-07-07T06:40:19.646Z,16.00
2018-07-07T06:42:47.718Z,15.90
2018-07-07T06:45:15.765Z,16.00
2018-07-07T06:47:43.800Z,16.10
2018-07-07T06:50:11.888Z,16.20
2018-07-07T06:52:39.954Z,16.20
2018-07-07T06:55:08.065Z,16.20
2018-07-07T06:57:36.124Z,16.40
2018-07-07T07:00:04.674Z,16.40
2018-07-07T07:05:00.575Z,16.10
2018-07-07T07:07:28.637Z,16.10
2018-07-07T07:09:56.689Z,16.30
2018-07-07T07:12:24.749Z,16.30
2018-07-07T07:14:53.057Z,16.50
2018-07-07T07:17:21.137Z,16.70
2018-07-07T07:19:49.241Z,17.00
2018-07-07T07:22:17.335Z,17.20
2018-07-07T07:24:45.433Z,17.10
2018-07-07T07:27:13.511Z,16.90
2018-07-07T07:29:41.573Z,16.80
2018-07-07T07:32:09.611Z,16.90
2018-07-07T07:34:37.674Z,16.90
2018-07-07T07:37:05.791Z,16.70
2018-07-07T07:39:33.855Z,16.70
2018-07-07T07:42:01.921Z,16.70
2018-07-07T07:44:29.988Z,16.90
2018-07-07T07:46:58.049Z,17.00
2018-07-07T07:49:26.117Z,17.20
2018-07-07T07:51:54.184Z,17.20
2018-07-07T07:54:22.251Z,17.20
2018-07-07T07:56:50.386Z,17.50
2018-07-07T08:01:46.345Z,17.30
2018-07-07T08:04:14.394Z,17.40
2018-07-07T08:06:42.469Z,17.40
2018-07-07T08:09:10.526Z,17.20
2018-07-07T08:11:39.234Z,17.40
2018-07-07T08:16:35.207Z,17.60
2018-07-07T08:19:03.730Z,17.80
2018-07-07T08:23:59.615Z,17.60
2018-07-07T08:26:27.694Z,17.50
2018-07-07T08:28:56.037Z,17.60
2018-07-07T08:31:24.086Z,17.50
2018-07-07T08:33:52.113Z,17.60
2018-07-07T08:36:20.282Z,17.60
2018-07-07T08:38:48.525Z,17.30
2018-07-07T08:41:16.606Z,17.40
2018-07-07T08:46:12.564Z,17.60
2018-07-07T08:48:40.804Z,17.70
2018-07-07T08:51:08.863Z,17.70
2018-07-07T08:53:36.910Z,17.90
2018-07-07T08:56:05.260Z,17.80
2018-07-07T08:58:33.305Z,17.80
2018-07-07T09:01:01.400Z,18.20
2018-07-07T09:03:29.433Z,18.20
2018-07-07T09:05:57.482Z,18.10
2018-07-07T09:08:25.516Z,17.80
2018-07-07T09:10:53.574Z,17.80
2018-07-07T09:13:21.633Z,17.70
2018-07-07T09:15:49.746Z,17.70
2018-07-07T09:18:17.961Z,17.90
2018-07-07T09:23:14.038Z,18.10
2018-07-07T09:25:42.120Z,18.10
2018-07-07T09:28:10.165Z,18.00
2018-07-07T09:30:38.238Z,18.20
2018-07-07T09:33:06.321Z,18.30
2018-07-07T09:35:34.369Z,18.30
2018-07-07T09:38:02.416Z,18.00
2018-07-07T09:40:30.449Z,17.90
2018-07-07T09:42:58.481Z,18.00
2018-07-07T09:45:26.526Z,18.10
2018-07-07T09:47:54.568Z,18.10
2018-07-07T09:50:22.627Z,18.00
2018-07-07T09:52:50.670Z,18.10
2018-07-07T09:55:18.718Z,18.20
2018-07-07T09:57:46.765Z,18.30
2018-07-07T10:00:17.405Z,18.50
2018-07-07T10:02:47.283Z,18.50
2018-07-07T10:05:15.318Z,18.10
2018-07-07T10:07:43.440Z,18.10
2018-07-07T10:10:12.573Z,18.30
2018-07-07T10:12:40.649Z,18.30
2018-07-07T10:15:08.721Z,18.40
2018-07-07T10:17:36.769Z,18.30
2018-07-07T10:20:04.925Z,18.50
2018-07-07T10:22:34.020Z,18.80
2018-07-07T10:25:02.078Z,19.00
2018-07-07T10:27:30.141Z,19.00
2018-07-07T10:29:58.225Z,18.80
2018-07-07T10:32:26.401Z,18.90
2018-07-07T10:34:54.447Z,18.90
2018-07-07T10:37:22.908Z,18.70
2018-07-07T10:39:50.931Z,18.70
2018-07-07T10:42:19.015Z,18.70
2018-07-07T10:44:47.046Z,18.50
2018-07-07T10:47:15.119Z,18.80
2018-07-07T10:49:43.178Z,18.80
2018-07-07T10:52:11.429Z,18.70
2018-07-07T10:54:39.800Z,18.60
2018-07-07T10:57:07.883Z,19.00
2018-07-07T10:59:36.105Z,19.20
2018-07-07T11:02:04.145Z,19.10
2018-07-07T11:04:32.462Z,19.10
2018-07-07T11:07:00.502Z,19.00
2018-07-07T11:09:28.897Z,18.90
2018-07-07T11:11:56.951Z,19.10
2018-07-07T11:14:24.997Z,19.50
2018-07-07T11:16:53.069Z,19.30
2018-07-07T11:19:21.156Z,19.30
2018-07-07T11:21:49.209Z,19.30
2018-07-07T11:24:17.420Z,19.40
2018-07-07T11:26:45.453Z,19.00
2018-07-07T11:29:14.385Z,19.00
2018-07-07T11:31:42.423Z,19.30
2018-07-07T11:34:10.536Z,19.80
2018-07-07T11:36:38.676Z,19.80
2018-07-07T11:39:07.288Z,19.80
2018-07-07T11:41:35.358Z,19.60
2018-07-07T11:44:03.429Z,19.50
2018-07-07T11:46:31.453Z,19.10
2018-07-07T11:48:59.498Z,19.00
2018-07-07T11:51:27.573Z,19.40
2018-07-07T11:53:55.657Z,19.30
2018-07-07T11:56:23.711Z,19.30
2018-07-07T11:58:51.797Z,19.30
2018-07-07T12:01:19.845Z,18.90
2018-07-07T12:03:47.898Z,18.90
2018-07-07T12:06:15.960Z,19.10
2018-07-07T12:08:44.035Z,19.00
2018-07-07T12:11:12.114Z,19.10
2018-07-07T12:13:40.121Z,19.10
2018-07-07T12:16:08.165Z,18.90
2018-07-07T12:18:36.230Z,18.80
2018-07-07T12:21:04.396Z,19.10
2018-07-07T12:23:33.070Z,19.20
2018-07-07T12:26:01.130Z,19.10
2018-07-07T12:28:29.225Z,19.20
2018-07-07T12:30:57.282Z,19.20
2018-07-07T12:33:25.394Z,19.40
2018-07-07T12:35:53.453Z,19.20
2018-07-07T12:38:21.514Z,19.00
2018-07-07T12:40:49.690Z,19.10
2018-07-07T12:43:17.642Z,19.40
2018-07-07T12:45:45.725Z,19.60
2018-07-07T12:48:13.750Z,19.70
2018-07-07T12:50:41.809Z,19.80
2018-07-07T12:53:10.030Z,19.80
2018-07-07T12:55:38.085Z,19.60
2018-07-07T12:58:06.206Z,19.70
2018-07-07T13:00:34.262Z,19.50
2018-07-07T13:03:02.297Z,19.50
2018-07-07T13:05:30.346Z,19.70
2018-07-07T13:07:58.398Z,19.60
2018-07-07T13:10:26.474Z,19.10
2018-07-07T13:12:54.526Z,19.20
2018-07-07T13:15:22.669Z,19.50
2018-07-07T13:17:50.716Z,20.30
2018-07-07T13:20:18.874Z,20.30
2018-07-07T13:22:46.897Z,20.30
2018-07-07T13:25:14.941Z,20.00
2018-07-07T13:27:43.014Z,19.60
2018-07-07T13:32:39.029Z,19.70
2018-07-07T13:35:07.086Z,19.90
2018-07-07T13:37:35.188Z,19.60
2018-07-07T13:40:09.929Z,19.60
2018-07-07T13:42:38.031Z,19.80
2018-07-07T13:45:06.105Z,19.60
2018-07-07T13:47:34.149Z,19.60
2018-07-07T13:50:02.450Z,19.90
2018-07-07T13:54:58.454Z,19.70
2018-07-07T13:57:26.526Z,19.90
2018-07-07T13:59:54.613Z,19.90
2018-07-07T14:02:22.718Z,20.10
2018-07-07T14:04:50.738Z,20.10
2018-07-07T14:07:18.777Z,16.90
2018-07-07T14:09:46.830Z,20.40
2018-07-07T14:12:14.919Z,20.10
2018-07-07T14:14:42.981Z,20.00
2018-07-07T14:17:11.114Z,20.00
2018-07-07T14:19:39.106Z,20.00
2018-07-07T14:22:07.232Z,20.30
2018-07-07T14:24:35.305Z,20.10
2018-07-07T14:27:03.375Z,20.10
2018-07-07T14:29:32.186Z,20.10
2018-07-07T14:32:00.262Z,20.00
2018-07-07T14:36:56.289Z,19.70
2018-07-07T14:39:27.681Z,19.90
2018-07-07T14:42:07.202Z,19.90
2018-07-07T14:44:35.281Z,19.90
2018-07-07T14:47:03.345Z,20.00
2018-07-07T14:49:31.433Z,20.00
2018-07-07T14:51:59.517Z,19.90
2018-07-07T14:54:27.609Z,20.50
2018-07-07T14:56:55.658Z,20.70
2018-07-07T14:59:23.699Z,20.60
2018-07-07T15:01:51.742Z,20.70
2018-07-07T15:04:19.797Z,20.70
2018-07-07T15:06:47.887Z,20.60
2018-07-07T15:09:15.919Z,20.40
2018-07-07T15:11:43.996Z,20.30
2018-07-07T15:14:12.062Z,20.30
2018-07-07T15:16:40.112Z,20.70
2018-07-07T15:19:08.179Z,20.20
2018-07-07T15:21:36.229Z,20.20
2018-07-07T15:24:04.262Z,20.20
2018-07-07T15:26:33.294Z,20.60
2018-07-07T15:29:01.358Z,20.80
2018-07-07T15:31:29.409Z,21.00
2018-07-07T15:33:57.438Z,20.70
2018-07-07T15:36:25.498Z,20.70
2018-07-07T15:38:53.536Z,21.20
2018-07-07T15:41:21.622Z,21.10
2018-07-07T15:46:17.581Z,20.40
2018-07-07T15:48:45.626Z,20.50
2018-07-07T15:51:13.729Z,20.50
2018-07-07T15:53:41.811Z,20.90
2018-07-07T15:56:10.224Z,20.90
2018-07-07T15:58:38.299Z,20.40
2018-07-07T16:01:06.369Z,20.20
2018-07-07T16:03:34.443Z,20.20
2018-07-07T16:06:02.494Z,20.80
2018-07-07T16:08:30.537Z,20.80
2018-07-07T16:10:58.589Z,20.50
2018-07-07T16:13:26.649Z,20.50
2018-07-07T16:15:54.724Z,20.40
2018-07-07T16:18:22.762Z,21.10
2018-07-07T16:20:50.825Z,21.00
2018-07-07T16:23:18.868Z,20.90
2018-07-07T16:25:46.957Z,20.60
2018-07-07T16:28:15.066Z,21.10
2018-07-07T16:30:43.158Z,21.30
2018-07-07T16:33:11.253Z,21.80
2018-07-07T16:35:39.285Z,22.30
2018-07-07T16:38:07.521Z,21.60
2018-07-07T16:40:35.604Z,21.30
2018-07-07T16:43:03.662Z,21.50
2018-07-07T16:45:31.758Z,20.90
2018-07-07T16:47:59.823Z,20.60
2018-07-07T16:50:28.269Z,20.40
2018-07-07T16:52:56.345Z,19.80
2018-07-07T16:55:24.561Z,19.60
2018-07-07T16:57:52.778Z,19.20
2018-07-07T17:00:20.846Z,19.00
2018-07-07T17:02:49.924Z,18.70
2018-07-07T17:05:17.974Z,18.90
2018-07-07T17:07:46.397Z,19.00
2018-07-07T17:10:15.439Z,18.70
2018-07-07T17:12:43.492Z,18.70
2018-07-07T17:15:11.559Z,18.60
2018-07-07T17:17:39.626Z,18.40
2018-07-07T17:20:08.559Z,18.70
2018-07-07T17:22:36.693Z,18.70
2018-07-07T17:25:04.738Z,18.90
2018-07-07T17:27:33.446Z,19.10
2018-07-07T17:30:01.490Z,18.90
2018-07-07T17:32:30.530Z,18.90
2018-07-07T17:34:58.674Z,19.10
2018-07-07T17:37:26.949Z,19.60
2018-07-07T17:39:55.002Z,19.80
2018-07-07T17:42:23.078Z,19.60
2018-07-07T17:44:51.368Z,19.60
2018-07-07T17:47:19.627Z,18.70
2018-07-07T17:49:47.694Z,18.70
2018-07-07T17:52:15.766Z,18.40
2018-07-07T17:54:43.852Z,18.10
2018-07-07T17:57:11.901Z,18.10
2018-07-07T17:59:39.985Z,18.10
2018-07-07T18:02:08.443Z,17.90
2018-07-07T18:04:36.516Z,17.70
2018-07-07T18:07:04.578Z,17.80
2018-07-07T18:09:32.865Z,17.80
2018-07-07T18:12:00.918Z,18.00
2018-07-07T18:14:29.001Z,18.10
2018-07-07T18:16:57.053Z,17.90
2018-07-07T18:19:25.109Z,17.80
2018-07-07T18:21:53.177Z,17.60
2018-07-07T18:24:21.318Z,17.50
2018-07-07T18:26:49.365Z,17.40
2018-07-07T18:29:17.459Z,17.50
2018-07-07T18:31:45.717Z,17.60
2018-07-07T18:34:13.733Z,17.50
2018-07-07T18:36:41.804Z,17.50
2018-07-07T18:39:09.858Z,17.20
2018-07-07T18:41:37.934Z,17.10
2018-07-07T18:44:06.056Z,17.00
2018-07-07T18:46:34.112Z,17.20
2018-07-07T18:49:02.212Z,17.20
2018-07-07T18:51:30.277Z,17.10
2018-07-07T18:53:58.357Z,17.10
2018-07-07T18:56:26.447Z,17.10
2018-07-07T18:58:54.493Z,17.10
2018-07-07T19:01:22.573Z,16.90
2018-07-07T19:03:50.629Z,16.80
2018-07-07T19:06:18.678Z,16.80
2018-07-07T19:08:46.747Z,17.00
2018-07-07T19:11:14.786Z,16.90
2018-07-07T19:13:42.841Z,16.80
2018-07-07T19:16:10.921Z,16.70
2018-07-07T19:18:38.981Z,16.70
2018-07-07T19:23:16.058Z,16.70
2018-07-07T19:25:49.586Z,16.60
2018-07-07T19:28:17.645Z,16.50
2018-07-07T19:30:45.738Z,16.50
2018-07-07T19:33:19.275Z,16.60
2018-07-07T19:35:52.666Z,16.70
2018-07-07T19:38:21.642Z,16.40
2018-07-07T19:43:17.577Z,16.40
2018-07-07T19:45:45.629Z,16.40
2018-07-07T19:48:13.676Z,16.40
2018-07-07T19:50:41.762Z,16.10
2018-07-07T19:53:09.870Z,16.10
2018-07-07T19:55:37.946Z,16.10
2018-07-07T19:58:06.024Z,16.20
2018-07-07T20:00:34.107Z,16.20
2018-07-07T20:03:02.194Z,16.10
2018-07-07T20:05:31.314Z,16.00
2018-07-07T20:07:59.392Z,16.00
2018-07-07T20:10:27.447Z,16.00
2018-07-07T20:12:55.522Z,16.00
2018-07-07T20:15:35.187Z,15.80
2018-07-07T20:18:07.299Z,15.80
2018-07-07T20:20:40.654Z,15.80
2018-07-07T20:25:37.802Z,15.80
2018-07-07T20:28:11.264Z,15.70
2018-07-07T20:30:39.346Z,15.70
2018-07-07T20:35:35.459Z,15.70
2018-07-07T20:38:03.572Z,15.50
2018-07-07T20:40:31.676Z,15.60
2018-07-07T20:45:28.658Z,15.60
2018-07-07T20:47:56.725Z,15.60
2018-07-07T20:50:24.773Z,15.60
2018-07-07T20:52:52.882Z,15.50
2018-07-07T20:55:20.955Z,15.50
2018-07-07T20:57:49.001Z,15.40
2018-07-07T21:00:17.096Z,15.50
2018-07-07T21:02:45.134Z,15.40
2018-07-07T21:05:13.201Z,15.40
2018-07-07T21:07:41.249Z,15.40
2018-07-07T21:10:09.305Z,15.30
2018-07-07T21:12:37.369Z,15.30
2018-07-07T21:15:05.537Z,15.30
2018-07-07T21:17:33.579Z,15.20
2018-07-07T21:20:01.646Z,15.20
2018-07-07T21:22:29.702Z,15.20
2018-07-07T21:24:57.889Z,15.20
2018-07-07T21:27:25.966Z,15.00
2018-07-07T21:29:54.031Z,15.00
2018-07-07T21:32:22.245Z,15.10
2018-07-07T21:34:50.287Z,15.10
2018-07-07T21:37:18.326Z,15.10
2018-07-07T21:39:46.362Z,15.00
2018-07-07T21:42:14.538Z,15.00
2018-07-07T21:44:42.586Z,14.90
2018-07-07T21:47:10.635Z,15.00
2018-07-07T21:49:38.676Z,15.00
2018-07-07T21:52:06.813Z,15.00
2018-07-07T21:54:34.854Z,15.00
2018-07-07T21:57:02.966Z,15.00
2018-07-07T21:59:31.006Z,15.00
2018-07-07T22:02:04.800Z,15.00
2018-07-07T22:04:38.654Z,15.00
2018-07-07T22:07:13.593Z,15.00
2018-07-07T22:09:42.509Z,15.00
2018-07-07T22:12:10.604Z,15.00
2018-07-07T22:14:38.643Z,14.90
2018-07-07T22:17:06.702Z,14.90
2018-07-07T22:19:34.745Z,14.90
2018-07-07T22:24:38.773Z,15.00
2018-07-07T22:27:08.179Z,15.00
2018-07-07T22:29:36.244Z,15.00
2018-07-07T22:32:05.852Z,14.90
2018-07-07T22:34:35.449Z,14.70
2018-07-07T22:37:03.524Z,14.70
2018-07-07T22:39:36.547Z,14.80
2018-07-07T22:42:05.846Z,14.70
2018-07-07T22:44:34.625Z,14.70
2018-07-07T22:47:02.659Z,14.70
2018-07-07T22:49:31.049Z,14.50
2018-07-07T22:51:59.090Z,14.50
2018-07-07T22:54:27.169Z,14.50
2018-07-07T22:56:55.203Z,14.60
2018-07-07T23:01:51.202Z,14.60
2018-07-07T23:04:19.241Z,14.60
2018-07-07T23:06:47.651Z,14.60
2018-07-07T23:09:16.641Z,14.50
2018-07-07T23:11:44.674Z,14.50
2018-07-07T23:14:12.731Z,14.50
2018-07-07T23:16:40.783Z,14.50
2018-07-07T23:19:09.325Z,14.40
2018-07-07T23:21:37.392Z,14.50
2018-07-07T23:24:05.651Z,14.50
2018-07-07T23:26:33.678Z,14.40
2018-07-07T23:29:03.079Z,14.40
2018-07-07T23:31:31.153Z,14.40
2018-07-07T23:33:59.602Z,14.40
2018-07-07T23:36:27.927Z,14.40
2018-07-07T23:38:55.969Z,14.40
2018-07-07T23:41:24.005Z,14.30
2018-07-07T23:43:52.302Z,14.40
2018-07-07T23:46:20.501Z,14.30
2018-07-07T23:48:48.537Z,14.40
2018-07-07T23:51:16.581Z,14.30
2018-07-07T23:53:44.637Z,14.30
2018-07-07T23:56:12.712Z,14.30
2018-07-07T23:58:40.762Z,14.40
